Flight Track Log - Related Links

Times and Time Zones

All times are in EDT time to prevent confusion due to time zone crossing. See the FTH830 flight status page for this flight to view local times or setup timezone preferences in your user account.

Time Position Orientation Groundspeed Altitude Reporting Facility
EDT Latitude Longitude Course Direction KTS MPH feet Rate Location/Type
04:56PM 34.0000 -118.4667 253° West 169 194 1,100  Level Southern California TRACON
04:57PM 33.9833 -118.5333 284° West 247 284 3,400 2,750 Climbing Southern California TRACON
04:58PM 34.0000 -118.6167 352° North 274 315 6,600 1,770 Climbing Southern California TRACON
04:59PM 34.0764 -118.6292 27° Northeast 288 331 7,000 1,230 Climbing Los Angeles Center
05:00PM 34.1506 -118.5836 26° Northeast 276 318 9,100 2,450 Climbing Los Angeles Center
05:01PM 34.2328 -118.5358 27° Northeast 296 341 11,900 2,900 Climbing Los Angeles Center
05:02PM 34.3322 -118.4733 32° Northeast 326 375 14,900 2,459 Climbing Los Angeles Center
05:03PM 34.4189 -118.4078 52° Northeast 358 412 16,900 1,955 Climbing Los Angeles Center
05:05PM 34.5006 -118.2789 54° Northeast 372 428 19,200 1,924 Climbing Los Angeles Center
05:06PM 34.5694 -118.1644 56° Northeast 388 447 21,100 2,000 Climbing Los Angeles Center
05:07PM 34.6275 -118.0600 79° East 410 472 23,200 2,017 Climbing Los Angeles Center
05:08PM 34.6483 -117.9292 83° East 402 463 25,100 1,700 Climbing Los Angeles Center
05:09PM 34.6628 -117.7856 84° East 402 463 26,600 1,550 Climbing Los Angeles Center
05:10PM 34.6750 -117.6419 82° East 415 478 28,200 1,750 Climbing Los Angeles Center
05:11PM 34.6914 -117.4931 84° East 431 496 30,100 1,700 Climbing Los Angeles Center
05:12PM 34.7056 -117.3367 83° East 444 511 31,600 1,500 Climbing Los Angeles Center
05:13PM 34.7217 -117.1775 83° East 459 528 33,100 1,400 Climbing Los Angeles Center
05:14PM 34.7378 -117.0136 82° East 476 548 34,400 950 Climbing Los Angeles Center
05:15PM 34.7575 -116.8392 83° East 492 566 35,000 300 Climbing Los Angeles Center
05:16PM 34.7753 -116.6575 82° East 518 596 35,000  Level Los Angeles Center
05:17PM 34.7947 -116.4778 74° East 531 611 35,000  Level Los Angeles Center
05:18PM 34.8347 -116.3033 71° East 536 617 35,000  Level Los Angeles Center
05:19PM 34.8828 -116.1314 72° East 536 617 35,000 200 Level Los Angeles Center
05:20PM 34.9286 -115.9592 73° East 536 617 35,400 750 Climbing Los Angeles Center
05:21PM 34.9722 -115.7842 72° East 536 617 36,500 800 Climbing Los Angeles Center
05:22PM 35.0194 -115.6089 73° East 536 617 37,000 250 Climbing Los Angeles Center
05:23PM 35.0667 -115.4233 73° East 551 634 37,000  Level Los Angeles Center
05:24PM 35.1194 -115.2147 69° East 557 641 37,000  Level Los Angeles Center
05:25PM 35.1764 -115.0311 69° East 573 659 37,000  Level Los Angeles Center
05:26PM 35.2311 -114.8525 70° East 573 659 37,000  Level Los Angeles Center
05:27PM 35.2833 -114.6761 69° East 562 647 37,000  Level Los Angeles Center
05:28PM 35.3375 -114.5019 69° East 550 633 37,000  Level Los Angeles Center
05:29PM 35.3933 -114.3250 70° East 550 633 37,000  Level Los Angeles Center
05:30PM 35.4469 -114.1453 84° East 556 640 37,000 -200 Level Los Angeles Center
05:31PM 35.4625 -113.9511 108° East 561 646 36,600 -700 Descending Los Angeles Center
05:32PM 35.4156 -113.7767 121° Southeast 539 620 35,600 -1,100 Descending Los Angeles Center
05:33PM 35.3436 -113.6283 101° East 500 575 34,400 -1,100 Descending Los Angeles Center
05:34PM 35.3172 -113.4586 97° East 506 582 33,400 -1,400 Descending Los Angeles Center
05:35PM 35.3008 -113.2961 135° Southeast 501 577 31,600 -1,382 Descending Los Angeles Center
05:37PM 35.1183 -113.0747 151° Southeast 416 479 29,000 -1,194 Descending Albuquerque Center
05:38PM 35.0111 -113.0036 131° Southeast 421 484 27,800 -1,250 Descending Albuquerque Center
05:39PM 34.9347 -112.8969 124° Southeast 426 490 26,500 -1,400 Descending Albuquerque Center
05:40PM 34.8692 -112.7786 125° Southeast 421 484 25,000 -1,500 Descending Albuquerque Center
05:41PM 34.8033 -112.6631 123° Southeast 421 484 23,500 -1,500 Descending Albuquerque Center
05:42PM 34.7456 -112.5556 131° Southeast 421 484 22,000 -1,250 Descending Albuquerque Center
05:43PM 34.6747 -112.4550 140° Southeast 407 468 21,000 -500 Descending Albuquerque Center
05:44PM 34.5947 -112.3744 141° Southeast 392 451 21,000  Level Albuquerque Center
05:45PM 34.5144 -112.2964 147° Southeast 379 436 21,000 -650 Level Albuquerque Center
05:46PM 34.4275 -112.2283 167° South 374 430 19,700 -1,350 Descending Albuquerque Center
05:47PM 34.3325 -112.2025 168° South 361 415 18,300 -1,350 Descending Albuquerque Center
05:48PM 34.2397 -112.1794 167° South 354 407 17,000 -1,350 Descending Albuquerque Center
05:49PM 34.1406 -112.1511 168° South 349 402 15,600 -1,350 Descending Albuquerque Center
05:50PM 34.0558 -112.1286 168° South 327 376 14,300 -1,250 Descending Albuquerque Center
05:51PM 33.9692 -112.1061 166° South 321 369 13,100 -1,267 Descending Albuquerque Center
05:52PM 33.8333 -112.0667 171° South 305 351 10,900 -1,193 Descending Phoenix TRACON
05:53PM 33.7500 -112.0500 171° South 294 338 9,900 -500 Descending Phoenix TRACON
05:54PM 33.6667 -112.0333 168° South 295 339 9,900 -400 Level Phoenix TRACON
05:55PM 33.6000 -112.0167 157° South 260 299 9,100 -1,000 Descending Phoenix TRACON
05:56PM 33.5333 -111.9833 90° East 246 283 7,900 -1,158 Descending Phoenix TRACON
05:57PM 33.5333 -111.9000 90° East 246 283 6,900 -1,211 Descending Phoenix TRACON
05:58PM 33.5333 -111.8167 151° Southeast 242 278 5,600 -1,143 Descending Phoenix TRACON
05:59PM 33.4833 -111.7833 209° Southwest 210 242 4,500 -1,000 Descending Phoenix TRACON
06:00PM 33.4333 -111.8167 270° West 210 242 3,500 -744 Descending Phoenix TRACON
06:01PM 33.4333 -111.8833 270° West 188 216 3,000 -492 Descending Phoenix TRACON

Login

Don't have an account? Register now (free) for customized features, flight alerts, and more!